CEB471 RPLL-RPVB
Flight info
| Callsign | CEB471 |
|---|---|
| Flight time | N/A |
| Altitude | 35000 |
| Route | RPLL/06 N0454F350 VERD2R VERDE A461 SAJ W3 BEDER BEDE3P RPVB/03 |
| Aircraft | A321/L-SIL/2000 |
Departure
| Time | 2026-04-30 15:03 |
|---|---|
| Airport | Ninoy Aquino International Airport (RPLL) |
Arrival
| Time | N/A |
|---|---|
| Airport | Bacolod-Silay International Airport (RPVB) |
| Time | Latitude | Longitude | Altitude | Speed | Heading |
|---|---|---|---|---|---|
| 2026-04-30 14:42 | 14.51849 | 121.01319 | 81 ft | 0 kts | 46° |
| 2026-04-30 14:50 | 14.51828 | 121.01298 | 82 ft | 2 kts | 46° |
| 2026-04-30 14:50 | 14.51818 | 121.01286 | 82 ft | 2 kts | 46° |
| 2026-04-30 14:51 | 14.51798 | 121.01263 | 82 ft | 2 kts | 70° |
| 2026-04-30 14:51 | 14.51795 | 121.01247 | 82 ft | 2 kts | 97° |
| 2026-04-30 14:51 | 14.51805 | 121.01228 | 82 ft | 1 kts | 139° |
| 2026-04-30 14:52 | 14.51808 | 121.01224 | 82 ft | 0 kts | 135° |
| 2026-04-30 14:53 | 14.51806 | 121.01227 | 82 ft | 1 kts | 135° |
| 2026-04-30 14:54 | 14.51752 | 121.01282 | 82 ft | 7 kts | 135° |
| 2026-04-30 14:54 | 14.51601 | 121.01440 | 82 ft | 19 kts | 136° |
| 2026-04-30 14:55 | 14.51412 | 121.01640 | 82 ft | 18 kts | 140° |
| 2026-04-30 14:55 | 14.51318 | 121.01730 | 82 ft | 18 kts | 135° |
| 2026-04-30 14:55 | 14.51136 | 121.01920 | 82 ft | 19 kts | 135° |
| 2026-04-30 14:56 | 14.51008 | 121.01929 | 82 ft | 11 kts | 239° |
| 2026-04-30 14:56 | 14.50923 | 121.01772 | 82 ft | 13 kts | 239° |
| 2026-04-30 14:57 | 14.50873 | 121.01685 | 81 ft | 14 kts | 239° |
| 2026-04-30 14:57 | 14.50638 | 121.01262 | 82 ft | 15 kts | 242° |
| 2026-04-30 14:58 | 14.50531 | 121.01071 | 81 ft | 15 kts | 240° |
| 2026-04-30 14:58 | 14.50477 | 121.00974 | 81 ft | 15 kts | 240° |
| 2026-04-30 14:58 | 14.50369 | 121.00775 | 82 ft | 16 kts | 242° |
| 2026-04-30 14:59 | 14.50255 | 121.00572 | 82 ft | 16 kts | 239° |
| 2026-04-30 15:00 | 14.49912 | 120.99970 | 82 ft | 14 kts | 204° |
| 2026-04-30 15:00 | 14.49824 | 121.00086 | 82 ft | 13 kts | 59° |
| 2026-04-30 15:01 | 14.49844 | 121.00122 | 82 ft | 1 kts | 59° |
| 2026-04-30 15:01 | 14.49848 | 121.00128 | 82 ft | 1 kts | 60° |
| 2026-04-30 15:01 | 14.50121 | 121.00624 | 82 ft | 101 kts | 59° |
| 2026-04-30 15:02 | 14.50580 | 121.01445 | 82 ft | 158 kts | 60° |
| 2026-04-30 15:02 | 14.51167 | 121.02525 | 387 ft | 177 kts | 62° |
| 2026-04-30 15:03 | 14.52862 | 121.05646 | 2208 ft | 170 kts | 60° |
| 2026-04-30 15:03 | 14.53956 | 121.08012 | 2767 ft | 201 kts | 87° |
| 2026-04-30 15:04 | 14.52055 | 121.10187 | 3238 ft | 248 kts | 169° |
| 2026-04-30 15:04 | 14.46419 | 121.09609 | 4752 ft | 281 kts | 185° |
| 2026-04-30 15:05 | 14.40516 | 121.09036 | 6790 ft | 287 kts | 181° |
| 2026-04-30 15:06 | 14.36473 | 121.08743 | 8086 ft | 292 kts | 181° |
| 2026-04-30 15:06 | 14.32366 | 121.08467 | 9314 ft | 297 kts | 181° |
| 2026-04-30 15:07 | 14.28204 | 121.08197 | 10467 ft | 304 kts | 181° |
| 2026-04-30 15:07 | 14.23771 | 121.07912 | 11001 ft | 333 kts | 181° |
| 2026-04-30 15:08 | 14.18995 | 121.07604 | 11908 ft | 345 kts | 181° |
| 2026-04-30 15:08 | 14.11721 | 121.07130 | 13546 ft | 352 kts | 182° |
| 2026-04-30 15:09 | 14.06799 | 121.06810 | 14548 ft | 357 kts | 182° |
| 2026-04-30 15:09 | 14.01800 | 121.06486 | 15517 ft | 362 kts | 181° |
| 2026-04-30 15:10 | 13.96725 | 121.06158 | 16445 ft | 367 kts | 181° |
| 2026-04-30 15:11 | 13.86385 | 121.05493 | 18186 ft | 375 kts | 181° |
| 2026-04-30 15:11 | 13.81126 | 121.05155 | 19004 ft | 380 kts | 182° |
| 2026-04-30 15:12 | 13.73105 | 121.04639 | 20169 ft | 386 kts | 182° |
| 2026-04-30 15:13 | 13.67714 | 121.04293 | 20930 ft | 389 kts | 182° |
| 2026-04-30 15:14 | 13.56762 | 121.03589 | 22350 ft | 397 kts | 182° |
| 2026-04-30 15:14 | 13.48395 | 121.03195 | 23376 ft | 403 kts | 179° |
| 2026-04-30 15:16 | 13.34172 | 121.03337 | 25060 ft | 413 kts | 179° |
| 2026-04-30 15:17 | 13.22568 | 121.03452 | 26386 ft | 419 kts | 180° |
| 2026-04-30 15:18 | 13.07758 | 121.03593 | 27891 ft | 430 kts | 180° |
| 2026-04-30 15:19 | 12.98674 | 121.03683 | 28761 ft | 436 kts | 180° |